Meadow, South Dakota
Current Conditions -  °F | °C
As of 8:53 PM on Tuesday 27 Jan 2015 (Local Time) from KHEI Reporting Station
Clear Clear  
Wind Chill:   Ceiling: Unl
Heat Index:   Visibility: 10mi
Dew Point: -2°   Wind: 3mph
Humidity: 85%   Direction: 340°NNW
Pressure: 29.8"   Gusts: NA
Location:  45.53°N, 102.22°W
Report Text: KHEI 280353Z AUTO 34003KT 10SM CLR 00/M02 A2980 RMK AO2 SLP110 T00001022
Loading
Personal Weather Stations






























Interactive Weather Map New forecast layout! Learn more

10-Day Weather Forecast

Advertisements
Track Severe Weather on mobile